sensor_id;sensor_type;location;lat;lon;timestamp;pressure;altitude;pressure_sealevel;temperature;humidity
59272;BME280;45043;51.068;7.026;2024-02-21T00:02:22;101232.78;;;5.70;60.20
59272;BME280;45043;51.068;7.026;2024-02-21T00:05:22;101238.44;;;5.75;60.19
59272;BME280;45043;51.068;7.026;2024-02-21T00:08:24;101240.41;;;5.73;60.41
59272;BME280;45043;51.068;7.026;2024-02-21T00:11:25;101222.94;;;5.72;60.62
59272;BME280;45043;51.068;7.026;2024-02-21T00:14:25;101213.66;;;5.68;60.41
59272;BME280;45043;51.068;7.026;2024-02-21T00:17:26;101214.34;;;5.70;60.56
59272;BME280;45043;51.068;7.026;2024-02-21T00:20:27;101210.72;;;5.71;60.80
59272;BME280;45043;51.068;7.026;2024-02-21T00:23:27;101211.13;;;5.76;60.67
59272;BME280;45043;51.068;7.026;2024-02-21T00:26:29;101208.50;;;5.76;60.93
59272;BME280;45043;51.068;7.026;2024-02-21T00:29:29;101194.91;;;5.71;60.54
59272;BME280;45043;51.068;7.026;2024-02-21T00:32:30;101190.59;;;5.70;61.15
59272;BME280;45043;51.068;7.026;2024-02-21T00:35:32;101191.97;;;5.74;60.94
59272;BME280;45043;51.068;7.026;2024-02-21T00:38:33;101173.81;;;5.71;60.94
59272;BME280;45043;51.068;7.026;2024-02-21T00:41:34;101183.41;;;5.72;61.25
59272;BME280;45043;51.068;7.026;2024-02-21T00:44:34;101183.25;;;5.74;61.88
59272;BME280;45043;51.068;7.026;2024-02-21T00:47:35;101173.81;;;5.71;61.30
59272;BME280;45043;51.068;7.026;2024-02-21T00:50:36;101181.31;;;5.76;61.44
59272;BME280;45043;51.068;7.026;2024-02-21T00:53:38;101157.69;;;5.74;61.56
59272;BME280;45043;51.068;7.026;2024-02-21T00:56:39;101157.69;;;5.74;61.60
59272;BME280;45043;51.068;7.026;2024-02-21T00:59:40;101161.47;;;5.72;61.60
59272;BME280;45043;51.068;7.026;2024-02-21T01:02:41;101156.63;;;5.67;61.88
59272;BME280;45043;51.068;7.026;2024-02-21T01:05:42;101154.59;;;5.61;62.18
59272;BME280;45043;51.068;7.026;2024-02-21T01:08:47;101170.00;;;5.56;62.55
59272;BME280;45043;51.068;7.026;2024-02-21T01:11:51;101156.81;;;5.56;62.50
59272;BME280;45043;51.068;7.026;2024-02-21T01:14:51;101148.91;;;5.56;62.63
59272;BME280;45043;51.068;7.026;2024-02-21T01:17:52;101147.97;;;5.57;62.63
59272;BME280;45043;51.068;7.026;2024-02-21T01:20:55;101155.56;;;5.60;62.82
59272;BME280;45043;51.068;7.026;2024-02-21T01:23:55;101156.09;;;5.63;62.67
59272;BME280;45043;51.068;7.026;2024-02-21T01:26:56;101136.53;;;5.66;62.68
59272;BME280;45043;51.068;7.026;2024-02-21T01:29:56;101141.50;;;5.69;62.54
59272;BME280;45043;51.068;7.026;2024-02-21T01:32:57;101136.91;;;5.71;62.61
59272;BME280;45043;51.068;7.026;2024-02-21T01:35:58;101127.63;;;5.67;62.76
59272;BME280;45043;51.068;7.026;2024-02-21T01:38:59;101125.28;;;5.64;62.85
59272;BME280;45043;51.068;7.026;2024-02-21T01:42:00;101123.63;;;5.63;62.87
59272;BME280;45043;51.068;7.026;2024-02-21T01:45:00;101121.75;;;5.55;62.96
59272;BME280;45043;51.068;7.026;2024-02-21T01:48:01;101111.19;;;5.55;63.02
59272;BME280;45043;51.068;7.026;2024-02-21T01:51:04;101105.34;;;5.61;63.08
59272;BME280;45043;51.068;7.026;2024-02-21T01:54:05;101099.91;;;5.63;63.02
59272;BME280;45043;51.068;7.026;2024-02-21T01:57:06;101108.66;;;5.63;62.98
59272;BME280;45043;51.068;7.026;2024-02-21T02:00:09;101093.13;;;5.60;62.85
59272;BME280;45043;51.068;7.026;2024-02-21T02:03:11;101084.72;;;5.57;63.05
59272;BME280;45043;51.068;7.026;2024-02-21T02:06:21;101079.28;;;5.58;62.98
59272;BME280;45043;51.068;7.026;2024-02-21T02:09:22;101069.72;;;5.57;63.00
59272;BME280;45043;51.068;7.026;2024-02-21T02:12:23;101064.59;;;5.56;63.13
59272;BME280;45043;51.068;7.026;2024-02-21T02:15:24;101072.50;;;5.56;63.15
59272;BME280;45043;51.068;7.026;2024-02-21T02:18:25;101077.09;;;5.54;63.06
59272;BME280;45043;51.068;7.026;2024-02-21T02:21:30;101068.78;;;5.49;63.27
59272;BME280;45043;51.068;7.026;2024-02-21T02:24:32;101050.66;;;5.46;63.30
59272;BME280;45043;51.068;7.026;2024-02-21T02:27:41;101051.50;;;5.46;63.21
59272;BME280;45043;51.068;7.026;2024-02-21T02:30:44;101038.16;;;5.48;63.37
59272;BME280;45043;51.068;7.026;2024-02-21T02:33:45;101030.09;;;5.49;63.19
59272;BME280;45043;51.068;7.026;2024-02-21T02:36:46;101024.44;;;5.44;63.35
59272;BME280;45043;51.068;7.026;2024-02-21T02:39:49;101017.00;;;5.39;63.45
59272;BME280;45043;51.068;7.026;2024-02-21T02:42:49;101021.97;;;5.43;63.42
59272;BME280;45043;51.068;7.026;2024-02-21T02:45:51;101009.75;;;5.41;63.22
59272;BME280;45043;51.068;7.026;2024-02-21T02:48:51;101010.28;;;5.45;63.13
59272;BME280;45043;51.068;7.026;2024-02-21T02:51:52;101010.44;;;5.44;63.42
59272;BME280;45043;51.068;7.026;2024-02-21T02:54:53;101020.63;;;5.38;63.47
59272;BME280;45043;51.068;7.026;2024-02-21T02:57:56;101017.00;;;5.39;63.32
59272;BME280;45043;51.068;7.026;2024-02-21T03:00:57;101021.97;;;5.43;63.46
59272;BME280;45043;51.068;7.026;2024-02-21T03:03:58;101018.34;;;5.44;63.13
59272;BME280;45043;51.068;7.026;2024-02-21T03:06:59;101017.13;;;5.38;63.32
59272;BME280;45043;51.068;7.026;2024-02-21T03:10:00;101015.63;;;5.35;63.40
59272;BME280;45043;51.068;7.026;2024-02-21T03:13:00;101001.47;;;5.36;63.19
59272;BME280;45043;51.068;7.026;2024-02-21T03:16:01;101000.38;;;5.39;63.83
59272;BME280;45043;51.068;7.026;2024-02-21T03:19:02;100985.09;;;5.43;63.38
59272;BME280;45043;51.068;7.026;2024-02-21T03:22:03;100979.53;;;5.46;63.39
59272;BME280;45043;51.068;7.026;2024-02-21T03:25:07;100973.91;;;5.49;63.22
59272;BME280;45043;51.068;7.026;2024-02-21T03:28:08;100975.59;;;5.50;63.13
59272;BME280;45043;51.068;7.026;2024-02-21T03:31:11;100976.44;;;5.50;63.20
59272;BME280;45043;51.068;7.026;2024-02-21T03:34:12;100963.38;;;5.49;63.12
59272;BME280;45043;51.068;7.026;2024-02-21T03:37:13;100958.44;;;5.46;63.34
59272;BME280;45043;51.068;7.026;2024-02-21T03:40:14;100966.34;;;5.46;63.11
59272;BME280;45043;51.068;7.026;2024-02-21T03:43:15;100967.69;;;5.50;62.89
59272;BME280;45043;51.068;7.026;2024-02-21T03:46:16;100955.34;;;5.50;62.95
59272;BME280;45043;51.068;7.026;2024-02-21T03:49:16;100940.66;;;5.48;63.17
59272;BME280;45043;51.068;7.026;2024-02-21T03:52:18;100938.72;;;5.50;63.08
59272;BME280;45043;51.068;7.026;2024-02-21T03:55:19;100952.47;;;5.44;62.96
59272;BME280;45043;51.068;7.026;2024-02-21T03:58:19;100954.53;;;5.50;62.88
59272;BME280;45043;51.068;7.026;2024-02-21T04:01:20;100952.31;;;5.45;62.72
59272;BME280;45043;51.068;7.026;2024-02-21T04:04:21;100960.09;;;5.47;63.07
59272;BME280;45043;51.068;7.026;2024-02-21T04:07:23;100948.41;;;5.49;63.08
59272;BME280;45043;51.068;7.026;2024-02-21T04:10:23;100952.53;;;5.52;63.00
59272;BME280;45043;51.068;7.026;2024-02-21T04:13:25;100949.25;;;5.50;63.16
59272;BME280;45043;51.068;7.026;2024-02-21T04:16:26;100948.56;;;5.48;63.06
59272;BME280;45043;51.068;7.026;2024-02-21T04:19:26;100955.63;;;5.47;63.03
59272;BME280;45043;51.068;7.026;2024-02-21T04:22:27;100966.19;;;5.47;62.83
59272;BME280;45043;51.068;7.026;2024-02-21T04:25:28;100947.56;;;5.49;63.17
59272;BME280;45043;51.068;7.026;2024-02-21T04:28:28;100930.13;;;5.48;63.14
59272;BME280;45043;51.068;7.026;2024-02-21T04:31:29;100933.72;;;5.47;63.30
59272;BME280;45043;51.068;7.026;2024-02-21T04:34:30;100928.06;;;5.41;63.27
59272;BME280;45043;51.068;7.026;2024-02-21T04:37:30;100934.50;;;5.39;63.19
59272;BME280;45043;51.068;7.026;2024-02-21T04:40:31;100931.84;;;5.39;62.87
59272;BME280;45043;51.068;7.026;2024-02-21T04:43:32;100929.59;;;5.44;63.16
59272;BME280;45043;51.068;7.026;2024-02-21T04:46:33;100930.94;;;5.48;63.14
59272;BME280;45043;51.068;7.026;2024-02-21T04:49:34;100930.41;;;5.45;62.99
59272;BME280;45043;51.068;7.026;2024-02-21T04:52:35;100940.50;;;5.49;63.17
59272;BME280;45043;51.068;7.026;2024-02-21T04:55:36;100933.09;;;5.53;62.64
59272;BME280;45043;51.068;7.026;2024-02-21T04:58:40;100936.44;;;5.55;62.80
59272;BME280;45043;51.068;7.026;2024-02-21T05:01:41;100933.09;;;5.53;63.04
59272;BME280;45043;51.068;7.026;2024-02-21T05:04:43;100930.03;;;5.57;63.02
59272;BME280;45043;51.068;7.026;2024-02-21T05:07:44;100928.81;;;5.52;62.85
59272;BME280;45043;51.068;7.026;2024-02-21T05:10:45;100928.47;;;5.47;63.13
59272;BME280;45043;51.068;7.026;2024-02-21T05:13:46;100931.47;;;5.52;63.17
59272;BME280;45043;51.068;7.026;2024-02-21T05:16:46;100919.56;;;5.48;62.96
59272;BME280;45043;51.068;7.026;2024-02-21T05:19:47;100913.66;;;5.46;63.18
59272;BME280;45043;51.068;7.026;2024-02-21T05:22:47;100916.28;;;5.46;62.90
59272;BME280;45043;51.068;7.026;2024-02-21T05:25:48;100918.59;;;5.49;62.93
59272;BME280;45043;51.068;7.026;2024-02-21T05:28:49;100926.19;;;5.52;62.85
59272;BME280;45043;51.068;7.026;2024-02-21T05:34:51;100911.50;;;5.93;63.03
59272;BME280;45043;51.068;7.026;2024-02-21T05:37:52;100902.75;;;5.93;63.07
59272;BME280;45043;51.068;7.026;2024-02-21T05:40:53;100898.81;;;5.97;62.89
59272;BME280;45043;51.068;7.026;2024-02-21T05:43:54;100904.81;;;6.07;62.35
59272;BME280;45043;51.068;7.026;2024-02-21T05:46:55;100901.06;;;6.09;62.36
59272;BME280;45043;51.068;7.026;2024-02-21T05:49:55;100902.41;;;6.13;62.16
59272;BME280;45043;51.068;7.026;2024-02-21T05:52:56;100907.88;;;6.20;62.09
59272;BME280;45043;51.068;7.026;2024-02-21T05:55:57;100906.00;;;6.38;61.50
59272;BME280;45043;51.068;7.026;2024-02-21T05:58:58;100907.34;;;6.51;61.77
59272;BME280;45043;51.068;7.026;2024-02-21T06:01:58;100898.53;;;6.76;61.54
59272;BME280;45043;51.068;7.026;2024-02-21T06:04:59;100899.91;;;7.05;61.24
59272;BME280;45043;51.068;7.026;2024-02-21T06:08:00;100891.03;;;7.22;61.06
59272;BME280;45043;51.068;7.026;2024-02-21T06:11:01;100891.88;;;7.39;60.49
59272;BME280;45043;51.068;7.026;2024-02-21T06:14:01;100891.88;;;7.47;60.11
59272;BME280;45043;51.068;7.026;2024-02-21T06:17:02;100891.03;;;7.63;59.67
59272;BME280;45043;51.068;7.026;2024-02-21T06:20:03;100883.75;;;7.73;59.40
59272;BME280;45043;51.068;7.026;2024-02-21T06:23:05;100881.41;;;7.78;58.76
59272;BME280;45043;51.068;7.026;2024-02-21T06:26:06;100869.53;;;7.74;58.31
59272;BME280;45043;51.068;7.026;2024-02-21T06:29:06;100866.56;;;7.69;58.21
59272;BME280;45043;51.068;7.026;2024-02-21T06:32:07;100862.44;;;7.67;57.51
59272;BME280;45043;51.068;7.026;2024-02-21T06:35:08;100867.09;;;7.65;57.12
59272;BME280;45043;51.068;7.026;2024-02-21T06:38:08;100851.19;;;7.56;56.56
59272;BME280;45043;51.068;7.026;2024-02-21T06:41:18;100858.81;;;7.51;56.33
59272;BME280;45043;51.068;7.026;2024-02-21T06:44:21;100853.53;;;7.51;55.81
59272;BME280;45043;51.068;7.026;2024-02-21T06:47:23;100849.41;;;7.49;55.93
59272;BME280;45043;51.068;7.026;2024-02-21T06:50:24;100840.50;;;7.50;55.99
59272;BME280;45043;51.068;7.026;2024-02-21T06:53:25;100837.19;;;7.48;55.41
59272;BME280;45043;51.068;7.026;2024-02-21T06:56:26;100835.34;;;7.48;55.60
59272;BME280;45043;51.068;7.026;2024-02-21T06:59:29;100829.94;;;7.50;55.63
59272;BME280;45043;51.068;7.026;2024-02-21T07:02:30;100832.22;;;7.61;55.38
59272;BME280;45043;51.068;7.026;2024-02-21T07:05:31;100844.44;;;7.62;55.27
59272;BME280;45043;51.068;7.026;2024-02-21T07:08:31;100842.78;;;7.61;55.19
59272;BME280;45043;51.068;7.026;2024-02-21T07:11:32;100841.13;;;7.60;55.37
59272;BME280;45043;51.068;7.026;2024-02-21T07:14:33;100840.13;;;7.53;55.65
59272;BME280;45043;51.068;7.026;2024-02-21T07:17:33;100833.88;;;7.46;55.88
59272;BME280;45043;51.068;7.026;2024-02-21T07:20:34;100826.44;;;7.41;56.09
59272;BME280;45043;51.068;7.026;2024-02-21T07:23:40;100835.19;;;7.42;56.24
59272;BME280;45043;51.068;7.026;2024-02-21T07:26:42;100830.41;;;7.53;56.20
59272;BME280;45043;51.068;7.026;2024-02-21T07:29:43;100836.00;;;7.58;55.93
59272;BME280;45043;51.068;7.026;2024-02-21T07:32:51;100831.19;;;7.70;56.22
59272;BME280;45043;51.068;7.026;2024-02-21T07:35:52;100825.25;;;7.76;56.23
59272;BME280;45043;51.068;7.026;2024-02-21T07:38:52;100818.28;;;7.75;55.93
59272;BME280;45043;51.068;7.026;2024-02-21T07:41:53;100817.59;;;7.81;56.13
59272;BME280;45043;51.068;7.026;2024-02-21T07:44:54;100812.63;;;7.95;55.97
59272;BME280;45043;51.068;7.026;2024-02-21T07:47:56;100810.75;;;8.03;55.53
59272;BME280;45043;51.068;7.026;2024-02-21T07:50:57;100816.19;;;8.10;55.45
59272;BME280;45043;51.068;7.026;2024-02-21T07:53:58;100803.63;;;8.04;55.70
59272;BME280;45043;51.068;7.026;2024-02-21T07:56:58;100801.41;;;7.84;55.75
59272;BME280;45043;51.068;7.026;2024-02-21T08:00:00;100793.50;;;7.76;55.42
59272;BME280;45043;51.068;7.026;2024-02-21T08:03:01;100790.56;;;7.63;55.57
59272;BME280;45043;51.068;7.026;2024-02-21T08:06:03;100790.25;;;7.58;55.58
59272;BME280;45043;51.068;7.026;2024-02-21T08:09:03;100782.81;;;7.53;55.57
59272;BME280;45043;51.068;7.026;2024-02-21T08:12:05;100781.84;;;7.30;55.76
59272;BME280;45043;51.068;7.026;2024-02-21T08:15:06;100781.72;;;7.15;56.05
59272;BME280;45043;51.068;7.026;2024-02-21T08:18:12;100771.81;;;6.84;56.42
59272;BME280;45043;51.068;7.026;2024-02-21T08:21:13;100760.22;;;6.61;56.94
59272;BME280;45043;51.068;7.026;2024-02-21T08:24:14;100752.28;;;6.45;57.33
59272;BME280;45043;51.068;7.026;2024-02-21T08:27:15;100755.72;;;6.29;57.95
59272;BME280;45043;51.068;7.026;2024-02-21T08:30:16;100758.84;;;6.24;58.05
59272;BME280;45043;51.068;7.026;2024-02-21T08:33:16;100739.97;;;6.03;58.36
59272;BME280;45043;51.068;7.026;2024-02-21T08:36:19;100748.50;;;5.88;58.95
59272;BME280;45043;51.068;7.026;2024-02-21T08:39:20;100744.00;;;5.81;59.29
59272;BME280;45043;51.068;7.026;2024-02-21T08:42:22;100734.88;;;5.67;59.49
59272;BME280;45043;51.068;7.026;2024-02-21T08:45:23;100730.25;;;5.61;59.65
59272;BME280;45043;51.068;7.026;2024-02-21T08:48:24;100723.44;;;5.50;60.08
59272;BME280;45043;51.068;7.026;2024-02-21T08:51:25;100728.22;;;5.47;60.08
59272;BME280;45043;51.068;7.026;2024-02-21T08:54:27;100730.16;;;5.45;60.35
59272;BME280;45043;51.068;7.026;2024-02-21T08:57:28;100712.63;;;5.27;59.94
59272;BME280;45043;51.068;7.026;2024-02-21T09:00:29;100705.97;;;5.23;60.47
59272;BME280;45043;51.068;7.026;2024-02-21T09:03:33;100707.44;;;5.17;60.65
59272;BME280;45043;51.068;7.026;2024-02-21T09:06:34;100715.97;;;5.19;60.75
59272;BME280;45043;51.068;7.026;2024-02-21T09:09:38;100701.34;;;5.17;60.49
59272;BME280;45043;51.068;7.026;2024-02-21T09:12:40;100699.00;;;5.14;60.61
59272;BME280;45043;51.068;7.026;2024-02-21T09:15:42;100688.00;;;5.18;60.26
59272;BME280;45043;51.068;7.026;2024-02-21T09:18:43;100679.63;;;5.23;60.06
59272;BME280;45043;51.068;7.026;2024-02-21T09:21:43;100671.66;;;5.33;60.38
59272;BME280;45043;51.068;7.026;2024-02-21T09:24:44;100675.50;;;5.47;59.60
59272;BME280;45043;51.068;7.026;2024-02-21T09:27:45;100677.78;;;5.41;59.47
59272;BME280;45043;51.068;7.026;2024-02-21T09:30:46;100674.81;;;5.45;59.23
59272;BME280;45043;51.068;7.026;2024-02-21T09:33:46;100668.09;;;5.42;58.89
59272;BME280;45043;51.068;7.026;2024-02-21T09:36:47;100661.13;;;5.33;58.97
59272;BME280;45043;51.068;7.026;2024-02-21T09:39:48;100662.63;;;5.35;59.13
59272;BME280;45043;51.068;7.026;2024-02-21T09:42:58;100661.66;;;5.45;59.01
59272;BME280;45043;51.068;7.026;2024-02-21T09:46:03;100650.47;;;5.43;58.46
59272;BME280;45043;51.068;7.026;2024-02-21T09:49:46;100646.88;;;5.52;58.60
59272;BME280;45043;51.068;7.026;2024-02-21T09:52:29;100635.09;;;5.72;58.07
59272;BME280;45043;51.068;7.026;2024-02-21T09:55:31;100640.00;;;5.75;57.83
59272;BME280;45043;51.068;7.026;2024-02-21T09:58:35;100643.50;;;5.76;57.81
59272;BME280;45043;51.068;7.026;2024-02-21T10:01:36;100642.19;;;5.88;57.19
59272;BME280;45043;51.068;7.026;2024-02-21T10:04:37;100639.56;;;5.96;56.85
59272;BME280;45043;51.068;7.026;2024-02-21T10:07:38;100636.63;;;5.99;55.85
59272;BME280;45043;51.068;7.026;2024-02-21T10:10:44;100635.81;;;6.23;55.78
59272;BME280;45043;51.068;7.026;2024-02-21T10:13:45;100636.31;;;6.27;55.51
59272;BME280;45043;51.068;7.026;2024-02-21T10:16:48;100647.22;;;6.40;55.16
59272;BME280;45043;51.068;7.026;2024-02-21T10:19:50;100641.25;;;6.38;54.65
59272;BME280;45043;51.068;7.026;2024-02-21T10:23:02;100631.19;;;6.33;54.48
59272;BME280;45043;51.068;7.026;2024-02-21T10:26:08;100630.72;;;6.46;54.32
59272;BME280;45043;51.068;7.026;2024-02-21T10:29:10;100632.38;;;6.47;54.07
59272;BME280;45043;51.068;7.026;2024-02-21T10:32:12;100623.63;;;6.38;53.61
59272;BME280;45043;51.068;7.026;2024-02-21T10:35:13;100619.00;;;6.41;53.75
59272;BME280;45043;51.068;7.026;2024-02-21T10:38:14;100615.38;;;6.50;53.81
59272;BME280;45043;51.068;7.026;2024-02-21T10:41:15;100614.34;;;6.67;53.36
59272;BME280;45043;51.068;7.026;2024-02-21T10:44:18;100601.00;;;6.60;53.41
59272;BME280;45043;51.068;7.026;2024-02-21T10:47:22;100591.91;;;6.63;53.33
59272;BME280;45043;51.068;7.026;2024-02-21T10:50:25;100586.97;;;6.68;52.87
59272;BME280;45043;51.068;7.026;2024-02-21T10:56:53;100573.59;;;6.70;52.00
59272;BME280;45043;51.068;7.026;2024-02-21T10:59:58;100566.81;;;6.75;52.15
59272;BME280;45043;51.068;7.026;2024-02-21T11:03:00;100562.88;;;6.79;52.04
59272;BME280;45043;51.068;7.026;2024-02-21T11:06:01;100541.88;;;6.86;51.69
59272;BME280;45043;51.068;7.026;2024-02-21T11:09:03;100538.53;;;7.00;51.81
59272;BME280;45043;51.068;7.026;2024-02-21T11:12:06;100520.97;;;7.16;51.54
59272;BME280;45043;51.068;7.026;2024-02-21T11:15:07;100505.19;;;7.30;51.02
59272;BME280;45043;51.068;7.026;2024-02-21T11:18:09;100512.16;;;7.31;50.85
59272;BME280;45043;51.068;7.026;2024-02-21T11:21:10;100497.06;;;7.40;50.20
59272;BME280;45043;51.068;7.026;2024-02-21T11:24:11;100489.72;;;7.50;50.36
59272;BME280;45043;51.068;7.026;2024-02-21T11:27:16;100470.09;;;7.45;50.63
59272;BME280;45043;51.068;7.026;2024-02-21T11:30:17;100469.16;;;7.38;50.41
59272;BME280;45043;51.068;7.026;2024-02-21T11:33:23;100460.88;;;7.41;50.59
59272;BME280;45043;51.068;7.026;2024-02-21T11:36:26;100443.03;;;7.43;50.40
59272;BME280;45043;51.068;7.026;2024-02-21T11:39:27;100424.81;;;7.48;50.30
59272;BME280;45043;51.068;7.026;2024-02-21T11:42:30;100412.69;;;7.39;49.88
59272;BME280;45043;51.068;7.026;2024-02-21T11:45:31;100400.75;;;7.43;49.95
59272;BME280;45043;51.068;7.026;2024-02-21T11:48:32;100395.94;;;7.46;49.93
59272;BME280;45043;51.068;7.026;2024-02-21T11:51:34;100386.16;;;7.47;50.26
59272;BME280;45043;51.068;7.026;2024-02-21T11:54:35;100380.34;;;7.51;50.18
59272;BME280;45043;51.068;7.026;2024-02-21T11:57:37;100381.91;;;7.60;49.95
59272;BME280;45043;51.068;7.026;2024-02-21T12:00:43;100356.50;;;7.74;49.58
59272;BME280;45043;51.068;7.026;2024-02-21T12:03:43;100350.00;;;7.62;49.72
59272;BME280;45043;51.068;7.026;2024-02-21T12:06:52;100357.03;;;7.70;49.64
59272;BME280;45043;51.068;7.026;2024-02-21T12:09:59;100340.28;;;7.77;49.15
59272;BME280;45043;51.068;7.026;2024-02-21T12:13:10;100324.22;;;7.79;49.37
59272;BME280;45043;51.068;7.026;2024-02-21T12:16:15;100317.28;;;7.63;49.01
59272;BME280;45043;51.068;7.026;2024-02-21T12:19:18;100291.28;;;7.52;49.31
59272;BME280;45043;51.068;7.026;2024-02-21T12:22:19;100295.56;;;7.53;49.28
59272;BME280;45043;51.068;7.026;2024-02-21T12:25:21;100269.31;;;7.51;49.48
59272;BME280;45043;51.068;7.026;2024-02-21T12:28:24;100262.56;;;7.64;49.11
59272;BME280;45043;51.068;7.026;2024-02-21T12:31:24;100240.34;;;7.73;49.19
59272;BME280;45043;51.068;7.026;2024-02-21T12:34:25;100263.47;;;7.86;49.15
59272;BME280;45043;51.068;7.026;2024-02-21T12:37:27;100208.59;;;7.88;48.79
59272;BME280;45043;51.068;7.026;2024-02-21T12:40:28;100230.94;;;7.85;48.69
59272;BME280;45043;51.068;7.026;2024-02-21T12:43:33;100222.53;;;7.96;48.32
59272;BME280;45043;51.068;7.026;2024-02-21T12:46:36;100204.16;;;8.24;48.31
59272;BME280;45043;51.068;7.026;2024-02-21T12:49:38;100197.84;;;8.25;47.97
59272;BME280;45043;51.068;7.026;2024-02-21T12:52:39;100162.53;;;8.18;47.88
59272;BME280;45043;51.068;7.026;2024-02-21T12:55:40;100104.31;;;8.18;48.14
59272;BME280;45043;51.068;7.026;2024-02-21T12:58:42;100069.91;;;8.40;47.98
59272;BME280;45043;51.068;7.026;2024-02-21T13:01:42;100107.84;;;8.47;47.68
59272;BME280;45043;51.068;7.026;2024-02-21T13:04:43;100163.44;;;8.68;47.38
59272;BME280;45043;51.068;7.026;2024-02-21T13:07:44;100189.63;;;8.85;46.89
59272;BME280;45043;51.068;7.026;2024-02-21T13:10:45;100161.81;;;8.74;46.79
59272;BME280;45043;51.068;7.026;2024-02-21T13:13:46;100139.44;;;8.76;46.49
59272;BME280;45043;51.068;7.026;2024-02-21T13:16:46;100139.97;;;8.65;46.33
59272;BME280;45043;51.068;7.026;2024-02-21T13:19:47;100112.41;;;8.60;46.29
59272;BME280;45043;51.068;7.026;2024-02-21T13:22:47;100107.56;;;8.63;46.17
59272;BME280;45043;51.068;7.026;2024-02-21T13:25:48;100116.00;;;8.73;46.08
59272;BME280;45043;51.068;7.026;2024-02-21T13:28:49;100116.75;;;8.67;45.56
59272;BME280;45043;51.068;7.026;2024-02-21T13:31:50;100077.13;;;8.80;45.75
59272;BME280;45043;51.068;7.026;2024-02-21T13:34:50;100095.50;;;8.89;45.44
59272;BME280;45043;51.068;7.026;2024-02-21T13:37:52;100095.50;;;8.89;45.30
59272;BME280;45043;51.068;7.026;2024-02-21T13:40:53;100104.22;;;8.83;44.75
59272;BME280;45043;51.068;7.026;2024-02-21T13:43:54;100088.16;;;8.56;45.18
59272;BME280;45043;51.068;7.026;2024-02-21T13:46:55;100090.72;;;8.43;45.43
59272;BME280;45043;51.068;7.026;2024-02-21T13:49:56;100070.50;;;8.35;45.85
59272;BME280;45043;51.068;7.026;2024-02-21T13:52:57;100054.19;;;8.31;46.08
59272;BME280;45043;51.068;7.026;2024-02-21T13:55:59;100063.75;;;8.32;46.29
59272;BME280;45043;51.068;7.026;2024-02-21T13:58:59;100054.81;;;8.34;46.47
59272;BME280;45043;51.068;7.026;2024-02-21T14:02:01;100042.81;;;8.16;46.19
59272;BME280;45043;51.068;7.026;2024-02-21T14:05:01;100039.69;;;8.06;46.28
59272;BME280;45043;51.068;7.026;2024-02-21T14:08:06;100029.72;;;8.08;45.90
59272;BME280;45043;51.068;7.026;2024-02-21T14:11:07;100019.63;;;8.18;46.39
59272;BME280;45043;51.068;7.026;2024-02-21T14:14:08;100008.81;;;8.13;46.52
59272;BME280;45043;51.068;7.026;2024-02-21T14:17:08;100003.38;;;8.21;46.27
59272;BME280;45043;51.068;7.026;2024-02-21T14:20:09;100001.19;;;8.25;46.17
59272;BME280;45043;51.068;7.026;2024-02-21T14:23:10;100007.88;;;8.21;46.46
59272;BME280;45043;51.068;7.026;2024-02-21T14:26:11;100003.31;;;8.15;46.44
59272;BME280;45043;51.068;7.026;2024-02-21T14:29:13;99982.47;;;7.98;46.93
59272;BME280;45043;51.068;7.026;2024-02-21T14:32:13;99979.56;;;7.93;47.41
59272;BME280;45043;51.068;7.026;2024-02-21T14:35:14;99973.31;;;8.01;47.06
59272;BME280;45043;51.068;7.026;2024-02-21T14:38:17;99960.34;;;8.06;46.90
59272;BME280;45043;51.068;7.026;2024-02-21T14:41:19;99965.38;;;8.01;47.00
59272;BME280;45043;51.068;7.026;2024-02-21T14:44:20;99952.03;;;8.09;47.36
59272;BME280;45043;51.068;7.026;2024-02-21T14:47:20;99922.72;;;8.11;47.26
59272;BME280;45043;51.068;7.026;2024-02-21T14:50:23;99936.97;;;8.10;47.05
59272;BME280;45043;51.068;7.026;2024-02-21T14:53:24;99937.78;;;8.10;47.17
59272;BME280;45043;51.068;7.026;2024-02-21T14:56:25;99934.34;;;8.16;47.22
59272;BME280;45043;51.068;7.026;2024-02-21T14:59:26;99916.22;;;8.13;47.08
59272;BME280;45043;51.068;7.026;2024-02-21T15:02:26;99914.97;;;8.09;47.72
59272;BME280;45043;51.068;7.026;2024-02-21T15:05:28;99911.69;;;8.07;47.00
59272;BME280;45043;51.068;7.026;2024-02-21T15:08:29;99909.47;;;8.11;47.08
59272;BME280;45043;51.068;7.026;2024-02-21T15:11:30;99904.00;;;8.12;46.80
59272;BME280;45043;51.068;7.026;2024-02-21T15:14:30;99912.78;;;8.19;46.59
59272;BME280;45043;51.068;7.026;2024-02-21T15:17:31;99910.28;;;8.11;46.75
59272;BME280;45043;51.068;7.026;2024-02-21T15:20:33;99887.88;;;8.07;47.00
59272;BME280;45043;51.068;7.026;2024-02-21T15:23:34;99876.66;;;8.05;46.70
59272;BME280;45043;51.068;7.026;2024-02-21T15:26:36;99871.78;;;8.02;46.84
59272;BME280;45043;51.068;7.026;2024-02-21T15:29:37;99862.03;;;8.02;46.68
59272;BME280;45043;51.068;7.026;2024-02-21T15:32:38;99863.44;;;8.05;46.84
59272;BME280;45043;51.068;7.026;2024-02-21T15:35:40;99836.78;;;8.00;47.05
59272;BME280;45043;51.068;7.026;2024-02-21T15:38:42;99839.41;;;8.00;47.21
59272;BME280;45043;51.068;7.026;2024-02-21T15:41:42;99835.09;;;7.92;46.69
59272;BME280;45043;51.068;7.026;2024-02-21T15:44:44;99832.66;;;7.91;46.62
59272;BME280;45043;51.068;7.026;2024-02-21T15:47:45;99832.41;;;7.86;46.87
59272;BME280;45043;51.068;7.026;2024-02-21T15:50:46;99835.66;;;7.81;46.94
59272;BME280;45043;51.068;7.026;2024-02-21T15:53:47;99828.91;;;7.78;47.00
59272;BME280;45043;51.068;7.026;2024-02-21T15:56:47;99802.84;;;7.75;47.29
59272;BME280;45043;51.068;7.026;2024-02-21T15:59:49;99809.16;;;7.74;47.34
59272;BME280;45043;51.068;7.026;2024-02-21T16:02:54;99810.34;;;7.72;47.12
59272;BME280;45043;51.068;7.026;2024-02-21T16:05:58;99799.97;;;7.70;46.66
59272;BME280;45043;51.068;7.026;2024-02-21T16:08:59;99803.00;;;7.67;46.29
59272;BME280;45043;51.068;7.026;2024-02-21T16:11:59;99805.59;;;7.54;46.25